DESDP EDKB-ZZZZ
Flight info
| Callsign | DESDP |
|---|---|
| Flight time | N/A |
| Altitude | 2500 |
| Route | |
| Aircraft | C172 |
Departure
| Time | 2026-04-16 20:03 |
|---|---|
| Airport | Bonn-Hangelar Airfield (EDKB) |
Arrival
| Time | N/A |
|---|---|
| Airport | ZZZZ |
| Time | Latitude | Longitude | Altitude | Speed | Heading |
|---|---|---|---|---|---|
| 2026-04-16 20:03 | 50.75435 | 7.09175 | 2028 ft | 108 kts | 318° |
| 2026-04-16 20:03 | 50.76017 | 7.08422 | 2011 ft | 109 kts | 324° |
| 2026-04-16 20:03 | 50.76631 | 7.07735 | 1999 ft | 108 kts | 324° |
| 2026-04-16 20:04 | 50.77264 | 7.07116 | 2002 ft | 105 kts | 344° |
| 2026-04-16 20:04 | 50.77971 | 7.07248 | 1990 ft | 106 kts | 26° |
| 2026-04-16 20:04 | 50.78557 | 7.07966 | 1974 ft | 107 kts | 45° |
| 2026-04-16 20:04 | 50.79058 | 7.08817 | 1998 ft | 103 kts | 48° |
| 2026-04-16 20:05 | 50.79553 | 7.09640 | 1992 ft | 105 kts | 44° |
| 2026-04-16 20:05 | 50.80111 | 7.10396 | 1983 ft | 105 kts | 36° |
| 2026-04-16 20:05 | 50.80732 | 7.10999 | 2000 ft | 104 kts | 27° |
| 2026-04-16 20:05 | 50.81395 | 7.11535 | 1943 ft | 111 kts | 30° |
| 2026-04-16 20:06 | 50.82000 | 7.12303 | 1825 ft | 113 kts | 46° |
| 2026-04-16 20:06 | 50.82479 | 7.13269 | 1714 ft | 110 kts | 56° |
| 2026-04-16 20:06 | 50.82888 | 7.14303 | 1556 ft | 112 kts | 58° |
| 2026-04-16 20:06 | 50.83293 | 7.15340 | 1385 ft | 111 kts | 58° |
| 2026-04-16 20:07 | 50.83659 | 7.16338 | 1152 ft | 101 kts | 61° |
| 2026-04-16 20:07 | 50.83992 | 7.17270 | 964 ft | 91 kts | 56° |
| 2026-04-16 20:07 | 50.84435 | 7.17822 | 849 ft | 78 kts | 7° |
| 2026-04-16 20:07 | 50.84937 | 7.17424 | 602 ft | 87 kts | 321° |
| 2026-04-16 20:08 | 50.85359 | 7.16801 | 399 ft | 78 kts | 319° |
| 2026-04-16 20:08 | 50.85718 | 7.16277 | 322 ft | 65 kts | 319° |
| 2026-04-16 20:08 | 50.86053 | 7.15774 | 321 ft | 71 kts | 318° |
| 2026-04-16 20:08 | 50.86362 | 7.15315 | 360 ft | 73 kts | 321° |
| 2026-04-16 20:09 | 50.86754 | 7.14788 | 404 ft | 75 kts | 321° |
| 2026-04-16 20:09 | 50.87152 | 7.14223 | 424 ft | 83 kts | 316° |
| 2026-04-16 20:09 | 50.87597 | 7.13517 | 471 ft | 94 kts | 316° |
| 2026-04-16 20:09 | 50.88080 | 7.12758 | 591 ft | 98 kts | 317° |
| 2026-04-16 20:10 | 50.88414 | 7.11891 | 789 ft | 96 kts | 282° |
| 2026-04-16 20:10 | 50.88432 | 7.10834 | 933 ft | 96 kts | 270° |
| 2026-04-16 20:10 | 50.88461 | 7.09784 | 1103 ft | 95 kts | 271° |
| 2026-04-16 20:10 | 50.88442 | 7.08736 | 1270 ft | 94 kts | 266° |
| 2026-04-16 20:11 | 50.88380 | 7.07687 | 1387 ft | 98 kts | 259° |
| 2026-04-16 20:11 | 50.88232 | 7.06626 | 1518 ft | 97 kts | 264° |
| 2026-04-16 20:11 | 50.88371 | 7.05585 | 1628 ft | 100 kts | 297° |
| 2026-04-16 20:11 | 50.88799 | 7.04674 | 1689 ft | 106 kts | 313° |
| 2026-04-16 20:12 | 50.89336 | 7.03846 | 1757 ft | 109 kts | 318° |
| 2026-04-16 20:12 | 50.89920 | 7.03096 | 1840 ft | 108 kts | 325° |
| 2026-04-16 20:12 | 50.90543 | 7.02456 | 1933 ft | 102 kts | 326° |
| 2026-04-16 20:12 | 50.91113 | 7.01851 | 1960 ft | 96 kts | 325° |
| 2026-04-16 20:13 | 50.91640 | 7.01236 | 1955 ft | 94 kts | 323° |
| 2026-04-16 20:13 | 50.92097 | 7.00702 | 1954 ft | 99 kts | 322° |
| 2026-04-16 20:13 | 50.92650 | 7.00024 | 1959 ft | 102 kts | 322° |
| 2026-04-16 20:13 | 50.93213 | 6.99333 | 2003 ft | 103 kts | 323° |
| 2026-04-16 20:14 | 50.93814 | 6.98721 | 2037 ft | 104 kts | 331° |
| 2026-04-16 20:14 | 50.94404 | 6.98367 | 2064 ft | 106 kts | 348° |
| 2026-04-16 20:14 | 50.95131 | 6.98319 | 2094 ft | 102 kts | 2° |
| 2026-04-16 20:14 | 50.95824 | 6.98351 | 2073 ft | 97 kts | 355° |
| 2026-04-16 20:15 | 50.96333 | 6.97784 | 2029 ft | 96 kts | 285° |
| 2026-04-16 20:15 | 50.96108 | 6.96840 | 1981 ft | 96 kts | 216° |
| 2026-04-16 20:15 | 50.95475 | 6.96732 | 1940 ft | 97 kts | 155° |
| 2026-04-16 20:15 | 50.94870 | 6.97062 | 1910 ft | 94 kts | 189° |
| 2026-04-16 20:16 | 50.94405 | 6.96384 | 1840 ft | 96 kts | 251° |
| 2026-04-16 20:16 | 50.94097 | 6.95554 | 1861 ft | 90 kts | 200° |
| 2026-04-16 20:16 | 50.93533 | 6.95960 | 1723 ft | 99 kts | 129° |
| 2026-04-16 20:16 | 50.92956 | 6.96412 | 1687 ft | 97 kts | 185° |
| 2026-04-16 20:17 | 50.92307 | 6.96231 | 1646 ft | 96 kts | 170° |
| 2026-04-16 20:17 | 50.91877 | 6.96966 | 1543 ft | 99 kts | 106° |
| 2026-04-16 20:17 | 50.91459 | 6.97739 | 1545 ft | 94 kts | 160° |
| 2026-04-16 20:17 | 50.90832 | 6.97741 | 1583 ft | 86 kts | 174° |
| 2026-04-16 20:18 | 50.90342 | 6.98251 | 1555 ft | 89 kts | 127° |
| 2026-04-16 20:18 | 50.90010 | 6.99073 | 1554 ft | 88 kts | 117° |
| 2026-04-16 20:18 | 50.89728 | 6.99935 | 1558 ft | 88 kts | 117° |
| 2026-04-16 20:18 | 50.89444 | 7.00798 | 1556 ft | 88 kts | 112° |
| 2026-04-16 20:19 | 50.89344 | 7.01775 | 1549 ft | 95 kts | 89° |
| 2026-04-16 20:19 | 50.89371 | 7.02861 | 1570 ft | 101 kts | 85° |
| 2026-04-16 20:19 | 50.89453 | 7.03970 | 1616 ft | 103 kts | 81° |
| 2026-04-16 20:19 | 50.89594 | 7.05098 | 1640 ft | 106 kts | 77° |
| 2026-04-16 20:20 | 50.89751 | 7.06261 | 1646 ft | 109 kts | 78° |
| 2026-04-16 20:20 | 50.89844 | 7.07463 | 1637 ft | 112 kts | 86° |
| 2026-04-16 20:20 | 50.89860 | 7.08707 | 1573 ft | 113 kts | 90° |
| 2026-04-16 20:20 | 50.89852 | 7.09940 | 1473 ft | 112 kts | 90° |
| 2026-04-16 20:21 | 50.89849 | 7.11190 | 1364 ft | 113 kts | 89° |
| 2026-04-16 20:21 | 50.89857 | 7.12409 | 1269 ft | 110 kts | 88° |
| 2026-04-16 20:21 | 50.89863 | 7.13570 | 1166 ft | 102 kts | 90° |
| 2026-04-16 20:21 | 50.89841 | 7.14671 | 1056 ft | 98 kts | 92° |
| 2026-04-16 20:22 | 50.89798 | 7.15736 | 979 ft | 93 kts | 93° |
| 2026-04-16 20:22 | 50.89778 | 7.16721 | 963 ft | 86 kts | 79° |
| 2026-04-16 20:22 | 50.90111 | 7.17368 | 1047 ft | 79 kts | 12° |
| 2026-04-16 20:22 | 50.90560 | 7.16923 | 1094 ft | 87 kts | 288° |
| 2026-04-16 20:23 | 50.90329 | 7.16094 | 1150 ft | 90 kts | 206° |
| 2026-04-16 20:23 | 50.89755 | 7.16258 | 1229 ft | 89 kts | 135° |
| 2026-04-16 20:23 | 50.89559 | 7.17131 | 1313 ft | 86 kts | 77° |
| 2026-04-16 20:23 | 50.89978 | 7.17743 | 1381 ft | 88 kts | 6° |
| 2026-04-16 20:24 | 50.90493 | 7.17302 | 1403 ft | 94 kts | 298° |
| 2026-04-16 20:24 | 50.90425 | 7.16308 | 1423 ft | 98 kts | 231° |
| 2026-04-16 20:24 | 50.89822 | 7.15950 | 1400 ft | 95 kts | 171° |
| 2026-04-16 20:24 | 50.89337 | 7.16549 | 1392 ft | 92 kts | 110° |
| 2026-04-16 20:25 | 50.89419 | 7.17482 | 1401 ft | 87 kts | 53° |
| 2026-04-16 20:25 | 50.89934 | 7.17898 | 1409 ft | 86 kts | 0° |
| 2026-04-16 20:25 | 50.90444 | 7.17472 | 1387 ft | 88 kts | 304° |
| 2026-04-16 20:25 | 50.90528 | 7.16543 | 1377 ft | 88 kts | 252° |
| 2026-04-16 20:26 | 50.90131 | 7.15860 | 1374 ft | 87 kts | 203° |
| 2026-04-16 20:26 | 50.89541 | 7.15861 | 1371 ft | 86 kts | 154° |
| 2026-04-16 20:26 | 50.89179 | 7.16572 | 1367 ft | 86 kts | 104° |
| 2026-04-16 20:26 | 50.89250 | 7.17495 | 1356 ft | 86 kts | 61° |
| 2026-04-16 20:27 | 50.89690 | 7.18100 | 1352 ft | 86 kts | 20° |
| 2026-04-16 20:27 | 50.90271 | 7.18066 | 1347 ft | 86 kts | 335° |
| 2026-04-16 20:27 | 50.90660 | 7.17378 | 1350 ft | 86 kts | 288° |
| 2026-04-16 20:27 | 50.90599 | 7.16458 | 1349 ft | 87 kts | 240° |
| 2026-04-16 20:28 | 50.90143 | 7.15882 | 1345 ft | 87 kts | 195° |
| 2026-04-16 20:28 | 50.89556 | 7.16009 | 1328 ft | 88 kts | 150° |
| 2026-04-16 20:28 | 50.89022 | 7.16533 | 1279 ft | 90 kts | 146° |
| 2026-04-16 20:28 | 50.88526 | 7.17004 | 1182 ft | 80 kts | 151° |
| 2026-04-16 20:29 | 50.88014 | 7.17325 | 1057 ft | 76 kts | 169° |
| 2026-04-16 20:29 | 50.87509 | 7.17170 | 883 ft | 81 kts | 212° |
| 2026-04-16 20:29 | 50.87221 | 7.16392 | 600 ft | 86 kts | 252° |
| 2026-04-16 20:29 | 50.86975 | 7.15554 | 369 ft | 78 kts | 245° |
| 2026-04-16 20:30 | 50.86759 | 7.14828 | 279 ft | 72 kts | 243° |
| 2026-04-16 20:30 | 50.86524 | 7.14113 | 331 ft | 73 kts | 242° |
| 2026-04-16 20:30 | 50.86285 | 7.13364 | 470 ft | 75 kts | 240° |
| 2026-04-16 20:30 | 50.86025 | 7.12671 | 705 ft | 72 kts | 236° |
| 2026-04-16 20:31 | 50.85688 | 7.12047 | 942 ft | 71 kts | 205° |
| 2026-04-16 20:31 | 50.85186 | 7.12153 | 1082 ft | 83 kts | 154° |
| 2026-04-16 20:31 | 50.84683 | 7.12578 | 1325 ft | 83 kts | 144° |
| 2026-04-16 20:31 | 50.84189 | 7.13163 | 1535 ft | 85 kts | 137° |
| 2026-04-16 20:32 | 50.83661 | 7.13567 | 1703 ft | 93 kts | 184° |
| 2026-04-16 20:32 | 50.83028 | 7.13157 | 1831 ft | 102 kts | 210° |
| 2026-04-16 20:32 | 50.82416 | 7.12650 | 2072 ft | 99 kts | 202° |
| 2026-04-16 20:32 | 50.81746 | 7.12262 | 2261 ft | 100 kts | 198° |
| 2026-04-16 20:33 | 50.81097 | 7.11861 | 2388 ft | 100 kts | 202° |
| 2026-04-16 20:33 | 50.80459 | 7.11458 | 2450 ft | 100 kts | 203° |
| 2026-04-16 20:33 | 50.79797 | 7.11045 | 2465 ft | 104 kts | 199° |
| 2026-04-16 20:33 | 50.79099 | 7.10661 | 2447 ft | 109 kts | 202° |
| 2026-04-16 20:34 | 50.78430 | 7.10096 | 2438 ft | 107 kts | 214° |
| 2026-04-16 20:34 | 50.77863 | 7.09386 | 2415 ft | 102 kts | 221° |
| 2026-04-16 20:34 | 50.77334 | 7.08636 | 2374 ft | 101 kts | 221° |
| 2026-04-16 20:34 | 50.76799 | 7.07925 | 2351 ft | 99 kts | 219° |
| 2026-04-16 20:35 | 50.76256 | 7.07273 | 2349 ft | 96 kts | 215° |
| 2026-04-16 20:35 | 50.75697 | 7.06712 | 2355 ft | 93 kts | 205° |
| 2026-04-16 20:35 | 50.75070 | 7.06598 | 2346 ft | 93 kts | 163° |
| 2026-04-16 20:35 | 50.74535 | 7.07233 | 2228 ft | 102 kts | 130° |
| 2026-04-16 20:36 | 50.74091 | 7.08103 | 2112 ft | 101 kts | 128° |
| 2026-04-16 20:36 | 50.73645 | 7.08953 | 1956 ft | 99 kts | 130° |
| 2026-04-16 20:36 | 50.73188 | 7.09730 | 1818 ft | 94 kts | 134° |
| 2026-04-16 20:36 | 50.72785 | 7.10513 | 1705 ft | 89 kts | 117° |
| 2026-04-16 20:37 | 50.72684 | 7.11419 | 1612 ft | 82 kts | 79° |
| 2026-04-16 20:37 | 50.73010 | 7.12166 | 1423 ft | 87 kts | 38° |
| 2026-04-16 20:37 | 50.73479 | 7.12765 | 1281 ft | 85 kts | 44° |
| 2026-04-16 20:37 | 50.73896 | 7.13390 | 1177 ft | 81 kts | 41° |
| 2026-04-16 20:38 | 50.74321 | 7.13924 | 1126 ft | 74 kts | 38° |
| 2026-04-16 20:38 | 50.74734 | 7.14374 | 1118 ft | 72 kts | 29° |
| 2026-04-16 20:38 | 50.75163 | 7.14771 | 1116 ft | 71 kts | 46° |
| 2026-04-16 20:38 | 50.75304 | 7.15501 | 1105 ft | 73 kts | 94° |
| 2026-04-16 20:39 | 50.75209 | 7.16264 | 1105 ft | 73 kts | 103° |
| 2026-04-16 20:39 | 50.75033 | 7.17059 | 1050 ft | 77 kts | 112° |
| 2026-04-16 20:39 | 50.74837 | 7.17813 | 1046 ft | 74 kts | 108° |
| 2026-04-16 20:39 | 50.74894 | 7.18586 | 988 ft | 76 kts | 56° |
| 2026-04-16 20:40 | 50.75269 | 7.19179 | 888 ft | 76 kts | 44° |
| 2026-04-16 20:40 | 50.75652 | 7.19714 | 841 ft | 70 kts | 28° |
| 2026-04-16 20:40 | 50.76127 | 7.19903 | 753 ft | 72 kts | 354° |
| 2026-04-16 20:40 | 50.76436 | 7.19333 | 610 ft | 78 kts | 280° |
| 2026-04-16 20:41 | 50.76494 | 7.18483 | 455 ft | 77 kts | 277° |
| 2026-04-16 20:41 | 50.76596 | 7.17688 | 334 ft | 72 kts | 286° |
| 2026-04-16 20:41 | 50.76761 | 7.16923 | 244 ft | 74 kts | 291° |
| 2026-04-16 20:41 | 50.76905 | 7.16274 | 226 ft | 47 kts | 289° |
| 2026-04-16 20:42 | 50.76973 | 7.15951 | 226 ft | 26 kts | 289° |
| 2026-04-16 20:42 | 50.76987 | 7.15766 | 223 ft | 15 kts | 229° |
| 2026-04-16 20:42 | 50.76914 | 7.15779 | 221 ft | 14 kts | 111° |
| 2026-04-16 20:42 | 50.76887 | 7.15908 | 221 ft | 11 kts | 109° |
| 2026-04-16 20:43 | 50.76864 | 7.16017 | 221 ft | 10 kts | 102° |
| 2026-04-16 20:43 | 50.76866 | 7.16086 | 221 ft | 1 kts | 140° |